Time;durP1;ratioP1;P1;durP2;ratioP2;P2;SDS_P1;SDS_P2;PMS_P1;PMS_P2;Temp;Humidity;BMP_temperature;BMP_pressure;BME280_temperature;BME280_humidity;BME280_pressure;Samples;Min_cycle;Max_cycle;Signal;HPM_P1;HPM_P2
2020/12/31 00:00:50;;;;;;;22.05;16.17;;;;;;;4.25;82.51;100072.69;10222721;28;20053;-65
2020/12/31 00:05:46;;;;;;;20.90;13.65;;;;;;;4.17;82.52;100081.44;10221187;28;20050;-66
2020/12/31 00:10:42;;;;;;;21.65;16.02;;;;;;;4.22;81.90;100084.06;10221807;28;20072;-65
2020/12/31 00:15:38;;;;;;;26.17;15.00;;;;;;;4.31;81.51;100082.34;10220647;28;20049;-66
2020/12/31 00:20:34;;;;;;;21.63;14.82;;;;;;;4.31;81.53;100087.75;10216042;28;20414;-65
2020/12/31 00:25:30;;;;;;;23.65;16.77;;;;;;;4.33;81.01;100085.56;10234523;28;20497;-66
2020/12/31 00:30:27;;;;;;;20.13;15.30;;;;;;;4.40;80.95;100086.00;10221147;28;20103;-65
2020/12/31 00:35:28;;;;;;;20.67;15.75;;;;;;;4.38;80.76;100093.59;10222490;28;20489;-65
2020/12/31 00:40:24;;;;;;;22.23;15.90;;;;;;;4.30;81.78;100096.97;10230875;28;20488;-66
2020/12/31 00:45:21;;;;;;;22.50;15.88;;;;;;;4.45;81.16;100097.84;10224239;28;20079;-66
2020/12/31 00:50:17;;;;;;;20.48;14.95;;;;;;;4.36;80.76;100106.66;10217913;28;20045;-65
2020/12/31 00:55:13;;;;;;;23.20;14.43;;;;;;;4.34;80.65;100108.84;10227463;28;20103;-65
2020/12/31 01:00:11;;;;;;;20.95;14.02;;;;;;;4.41;80.51;100114.69;10212131;28;20056;-66
2020/12/31 01:05:10;;;;;;;21.10;14.45;;;;;;;4.34;80.54;100108.84;10223216;28;20494;-65
2020/12/31 01:10:08;;;;;;;21.98;14.45;;;;;;;4.41;80.36;100108.47;10216892;28;20065;-66
2020/12/31 01:15:07;;;;;;;19.95;13.48;;;;;;;4.32;79.82;100110.22;10213130;28;20107;-66
2020/12/31 01:20:04;;;;;;;17.00;12.02;;;;;;;4.27;79.09;100108.38;10222736;28;20076;-65
2020/12/31 01:25:01;;;;;;;16.55;11.48;;;;;;;4.24;78.59;100114.38;10216412;28;20564;-64
2020/12/31 01:29:57;;;;;;;19.83;12.50;;;;;;;4.08;79.25;100118.34;10218669;28;20509;-65
2020/12/31 01:34:53;;;;;;;16.85;10.65;;;;;;;4.23;78.47;100118.19;10217730;28;20049;-65
2020/12/31 01:39:49;;;;;;;17.20;12.75;;;;;;;4.33;78.64;100123.44;10230361;28;20056;-65
2020/12/31 01:44:47;;;;;;;18.95;12.15;;;;;;;4.19;77.87;100122.56;10233509;28;20498;-65
2020/12/31 01:49:45;;;;;;;18.83;12.65;;;;;;;4.29;78.07;100117.00;10227116;28;20115;-65
2020/12/31 01:54:45;;;;;;;18.38;11.13;;;;;;;4.28;78.69;100128.94;10227518;28;20124;-65
2020/12/31 01:59:41;;;;;;;15.05;10.88;;;;;;;4.26;78.94;100131.13;10225218;28;20123;-66
2020/12/31 02:04:38;;;;;;;16.52;10.55;;;;;;;4.20;77.78;100134.97;10209015;28;20053;-65
2020/12/31 02:09:35;;;;;;;15.73;10.52;;;;;;;4.15;78.13;100127.72;10221570;28;20497;-64
2020/12/31 02:14:32;;;;;;;21.15;13.40;;;;;;;4.20;77.37;100134.97;10225899;28;20037;-63
2020/12/31 02:19:28;;;;;;;21.13;14.38;;;;;;;4.16;77.68;100144.78;10226989;28;20095;-64
2020/12/31 02:24:24;;;;;;;23.95;14.68;;;;;;;4.14;77.46;100141.56;10231246;28;20080;-66
2020/12/31 02:29:20;;;;;;;20.27;12.82;;;;;;;4.06;78.14;100134.06;10231198;28;20058;-67
2020/12/31 02:34:16;;;;;;;20.60;13.52;;;;;;;4.00;78.68;100142.25;10223870;28;20472;-66
2020/12/31 02:39:13;;;;;;;20.77;15.23;;;;;;;4.09;77.87;100144.31;10228848;28;20053;-66
2020/12/31 02:44:10;;;;;;;24.05;15.25;;;;;;;4.13;77.37;100150.75;10223047;28;20504;-66
2020/12/31 02:49:06;;;;;;;23.15;15.32;;;;;;;4.01;77.73;100148.44;10216633;28;20057;-67
2020/12/31 02:54:02;;;;;;;28.92;17.60;;;;;;;3.95;78.63;100146.91;10242036;28;20049;-65
2020/12/31 02:58:58;;;;;;;27.38;17.40;;;;;;;3.91;78.49;100143.97;10221937;28;20049;-65
2020/12/31 03:03:55;;;;;;;28.25;18.48;;;;;;;3.90;78.87;100150.47;10225776;28;20060;-66
2020/12/31 03:08:51;;;;;;;30.73;19.13;;;;;;;3.82;78.30;100147.59;10222909;28;20127;-65
2020/12/31 03:13:51;;;;;;;50.80;20.23;;;;;;;3.86;78.47;100146.72;10233587;28;20053;-66
2020/12/31 03:18:47;;;;;;;30.17;20.83;;;;;;;3.87;78.72;100142.91;10218352;28;20095;-66
2020/12/31 03:23:43;;;;;;;30.92;20.60;;;;;;;3.84;78.60;100138.09;10224467;28;20501;-65
2020/12/31 03:28:39;;;;;;;37.85;21.67;;;;;;;3.78;78.95;100140.06;10218837;28;20743;-65
2020/12/31 03:33:36;;;;;;;37.25;22.27;;;;;;;3.74;78.47;100138.22;10224475;28;20041;-65
2020/12/31 03:38:32;;;;;;;34.08;20.52;;;;;;;3.71;78.72;100138.75;10222275;28;20045;-65
2020/12/31 03:43:28;;;;;;;34.50;22.63;;;;;;;3.61;79.47;100130.78;10230498;28;20041;-65
2020/12/31 03:48:24;;;;;;;39.28;22.75;;;;;;;3.74;78.79;100144.41;10221264;28;20045;-65
2020/12/31 03:53:20;;;;;;;34.03;21.92;;;;;;;3.72;78.30;100137.69;10218569;28;20057;-65
2020/12/31 03:58:16;;;;;;;37.47;22.10;;;;;;;3.78;79.04;100145.47;10224707;28;20053;-66
2020/12/31 04:03:12;;;;;;;39.53;24.55;;;;;;;3.76;78.19;100136.00;10224176;28;20050;-66
2020/12/31 04:08:08;;;;;;;35.95;22.40;;;;;;;3.76;77.72;100149.53;10223869;28;20061;-67
2020/12/31 04:13:04;;;;;;;34.60;20.40;;;;;;;3.73;77.76;100133.88;10221648;28;20063;-65
2020/12/31 04:18:00;;;;;;;37.53;22.95;;;;;;;3.72;78.59;100135.00;10228915;28;20682;-65
2020/12/31 04:22:56;;;;;;;33.55;21.60;;;;;;;3.78;77.71;100128.41;10209162;28;20774;-65
2020/12/31 04:27:52;;;;;;;35.72;21.73;;;;;;;3.72;78.51;100140.41;10221206;28;20523;-65
2020/12/31 04:32:48;;;;;;;33.63;20.95;;;;;;;3.58;78.54;100141.06;10238924;28;20053;-65
2020/12/31 04:37:44;;;;;;;33.67;20.73;;;;;;;3.53;78.35;100141.13;10224597;28;20053;-65
2020/12/31 04:42:40;;;;;;;36.08;21.67;;;;;;;3.62;77.95;100145.88;10219178;28;20049;-66
2020/12/31 04:47:44;;;;;;;34.53;19.48;;;;;;;3.43;78.94;100149.28;10219265;28;20456;-65
2020/12/31 04:52:40;;;;;;;32.92;20.42;;;;;;;3.51;78.14;100146.00;10216800;28;20057;-65
2020/12/31 04:57:36;;;;;;;36.08;22.27;;;;;;;3.49;79.16;100153.56;10222703;28;20042;-66
2020/12/31 05:02:32;;;;;;;35.10;23.58;;;;;;;3.45;79.20;100144.41;10218238;28;20092;-65
2020/12/31 05:07:28;;;;;;;34.35;22.75;;;;;;;3.45;78.52;100141.72;10217262;28;20659;-65
2020/12/31 05:12:28;;;;;;;33.45;21.92;;;;;;;3.42;78.77;100153.09;10218207;28;20052;-65
2020/12/31 05:17:24;;;;;;;33.08;19.90;;;;;;;3.34;79.38;100145.59;10210583;28;20130;-63
2020/12/31 05:22:20;;;;;;;33.78;21.02;;;;;;;3.43;78.40;100143.91;10220886;28;20405;-63
2020/12/31 05:27:19;;;;;;;37.50;22.15;;;;;;;3.44;78.54;100142.81;10223459;28;20041;-65
2020/12/31 05:32:20;;;;;;;33.85;20.73;;;;;;;3.36;79.13;100144.25;10232410;28;20057;-66
2020/12/31 05:37:16;;;;;;;35.53;21.85;;;;;;;3.50;78.61;100144.38;10237579;28;20073;-65
2020/12/31 05:42:12;;;;;;;34.90;20.00;;;;;;;3.42;78.99;100147.69;10227550;28;20141;-65
2020/12/31 05:47:08;;;;;;;35.30;21.42;;;;;;;3.34;78.84;100156.41;10227228;28;20061;-65
2020/12/31 05:52:06;;;;;;;37.35;22.65;;;;;;;3.48;79.19;100151.97;10226719;28;20092;-65
2020/12/31 05:57:04;;;;;;;35.88;22.95;;;;;;;3.46;79.06;100162.25;10227767;28;20055;-65
2020/12/31 06:02:03;;;;;;;40.03;22.95;;;;;;;3.54;78.49;100156.22;10228946;28;20092;-65
2020/12/31 06:07:01;;;;;;;37.08;22.17;;;;;;;3.52;78.34;100153.00;10225391;28;20486;-65
2020/12/31 06:12:02;;;;;;;36.60;23.70;;;;;;;3.52;78.65;100157.59;10228375;28;20136;-66
2020/12/31 06:17:00;;;;;;;39.10;23.00;;;;;;;3.35;78.52;100160.72;10213241;28;20046;-65
2020/12/31 06:22:07;;;;;;;38.35;22.85;;;;;;;3.53;78.06;100165.44;10235359;28;20060;-65
2020/12/31 06:27:08;;;;;;;37.47;21.40;;;;;;;3.51;77.37;100167.63;10224206;28;20605;-65
2020/12/31 06:32:13;;;;;;;33.58;21.73;;;;;;;3.54;77.98;100161.63;10225868;28;20046;-64
2020/12/31 06:37:10;;;;;;;38.33;23.00;;;;;;;3.51;77.96;100167.63;10229850;28;20053;-65
2020/12/31 06:42:07;;;;;;;36.75;21.65;;;;;;;3.48;77.65;100170.06;10220738;28;20041;-65
2020/12/31 06:47:03;;;;;;;38.90;22.15;;;;;;;3.44;78.30;100172.56;10227020;28;20056;-66
2020/12/31 06:52:18;;;;;;;35.20;21.27;;;;;;;3.44;77.56;100177.94;10228700;28;20060;-64
2020/12/31 06:57:37;;;;;;;39.72;23.67;;;;;;;3.42;78.08;100174.72;10218751;28;20081;-65
2020/12/31 07:02:46;;;;;;;43.60;24.35;;;;;;;3.33;78.28;100181.81;10238052;28;20052;-65
2020/12/31 07:07:45;;;;;;;37.15;21.25;;;;;;;3.22;78.62;100185.69;10221713;28;20073;-65
2020/12/31 07:12:45;;;;;;;34.33;21.10;;;;;;;3.14;78.50;100185.19;10223604;28;20537;-66
2020/12/31 07:17:43;;;;;;;37.55;22.80;;;;;;;3.05;79.19;100186.88;10222386;28;20127;-66
2020/12/31 07:22:40;;;;;;;35.67;20.00;;;;;;;3.02;79.05;100184.75;10228693;28;20480;-66
2020/12/31 07:27:41;;;;;;;33.95;20.00;;;;;;;3.15;78.48;100186.81;10220179;28;20056;-66
2020/12/31 07:32:49;;;;;;;33.38;18.73;;;;;;;3.08;79.17;100186.31;10225319;28;20053;-66
2020/12/31 07:37:49;;;;;;;33.47;20.73;;;;;;;3.14;79.19;100185.19;10214749;28;20085;-65
2020/12/31 07:42:45;;;;;;;33.55;19.38;;;;;;;3.22;78.35;100191.91;10211538;28;20589;-67
2020/12/31 07:47:41;;;;;;;31.48;18.73;;;;;;;3.12;78.44;100192.78;10208689;28;20064;-65
2020/12/31 07:52:40;;;;;;;31.95;18.70;;;;;;;3.10;78.76;100194.94;10198544;28;20041;-65
2020/12/31 07:57:41;;;;;;;29.90;17.15;;;;;;;3.10;79.09;100200.34;10204919;28;20123;-66
2020/12/31 08:02:49;;;;;;;39.95;20.20;;;;;;;3.09;79.11;100197.94;10208365;28;20060;-65
2020/12/31 08:07:49;;;;;;;29.27;17.05;;;;;;;3.15;79.29;100199.50;10215148;28;20413;-65
2020/12/31 08:13:01;;;;;;;28.58;16.70;;;;;;;3.20;78.52;100198.66;10222286;28;20683;-65
2020/12/31 08:18:03;;;;;;;27.00;17.02;;;;;;;3.26;78.36;100213.75;10217525;28;20073;-65
2020/12/31 08:23:02;;;;;;;24.40;15.15;;;;;;;3.30;78.27;100206.72;10201391;28;20092;-65
2020/12/31 08:28:04;;;;;;;25.77;15.35;;;;;;;3.44;77.83;100202.28;10222489;28;20045;-66
2020/12/31 08:33:02;;;;;;;23.48;13.93;;;;;;;3.46;77.68;100208.22;10219363;28;20863;-66
2020/12/31 08:38:15;;;;;;;21.15;12.93;;;;;;;3.49;77.59;100213.03;10223193;28;20049;-66
2020/12/31 08:43:31;;;;;;;18.42;13.07;;;;;;;3.47;78.00;100209.81;10221139;28;20053;-66
2020/12/31 08:48:28;;;;;;;17.08;11.63;;;;;;;3.50;77.15;100213.84;10221364;28;20045;-66
2020/12/31 08:53:25;;;;;;;19.25;11.98;;;;;;;3.52;77.18;100212.47;10223896;28;20045;-65
2020/12/31 08:58:26;;;;;;;18.08;12.40;;;;;;;3.54;77.43;100218.41;10221955;28;20053;-66
2020/12/31 09:03:24;;;;;;;18.20;11.98;;;;;;;3.60;76.58;100224.59;10200569;28;20045;-64
2020/12/31 09:08:20;;;;;;;17.73;10.27;;;;;;;3.45;77.32;100214.69;10219319;28;20058;-64
2020/12/31 09:13:19;;;;;;;16.23;10.85;;;;;;;3.49;77.28;100218.44;10224131;28;20559;-64
2020/12/31 09:18:17;;;;;;;13.80;10.73;;;;;;;3.58;77.06;100222.16;10207442;28;20053;-65
2020/12/31 09:23:13;;;;;;;14.35;10.07;;;;;;;3.72;76.90;100216.09;10179150;28;20053;-68
2020/12/31 09:28:09;;;;;;;14.77;9.75;;;;;;;3.64;77.04;100224.81;10197006;28;20637;-66
2020/12/31 09:33:05;;;;;;;14.43;8.90;;;;;;;3.57;76.79;100230.53;10187064;28;20053;-66
2020/12/31 09:38:01;;;;;;;13.68;10.02;;;;;;;3.72;76.96;100221.50;10197171;28;20077;-66
2020/12/31 09:42:57;;;;;;;11.75;8.55;;;;;;;3.63;77.20;100217.81;10193781;28;20054;-65
2020/12/31 09:47:53;;;;;;;13.40;9.50;;;;;;;3.65;76.99;100215.63;10196992;28;20045;-65
2020/12/31 09:52:49;;;;;;;13.75;9.52;;;;;;;3.67;76.56;100219.66;10196015;28;20068;-64
2020/12/31 09:58:06;;;;;;;10.98;7.68;;;;;;;3.56;76.80;100227.03;10190549;28;20045;-64
2020/12/31 10:03:02;;;;;;;14.48;8.18;;;;;;;3.66;77.04;100225.34;10209620;28;20469;-63
2020/12/31 10:07:58;;;;;;;11.75;7.60;;;;;;;3.54;77.13;100231.91;10208346;28;20148;-64
2020/12/31 10:12:54;;;;;;;12.98;8.60;;;;;;;3.56;76.81;100235.16;10209327;28;20045;-62
2020/12/31 10:17:50;;;;;;;12.43;8.73;;;;;;;3.66;76.55;100233.44;10210013;28;20555;-64
2020/12/31 10:22:46;;;;;;;12.20;8.15;;;;;;;3.71;76.89;100233.41;10203740;28;20060;-64
2020/12/31 10:27:42;;;;;;;12.23;8.55;;;;;;;3.66;77.40;100225.34;10199240;28;20056;-64
2020/12/31 10:32:38;;;;;;;13.88;8.52;;;;;;;3.54;77.36;100237.31;10209806;28;20056;-63
2020/12/31 10:37:34;;;;;;;13.57;9.65;;;;;;;3.66;77.14;100228.03;10206397;28;20053;-64
2020/12/31 10:42:30;;;;;;;13.15;9.23;;;;;;;3.63;77.79;100228.63;10205275;28;20736;-65
2020/12/31 10:47:26;;;;;;;13.05;9.38;;;;;;;3.66;77.54;100228.03;10207001;28;20049;-65
2020/12/31 10:52:22;;;;;;;11.68;8.35;;;;;;;3.55;77.77;100222.72;10206598;28;20088;-63
2020/12/31 10:57:18;;;;;;;15.27;9.48;;;;;;;3.56;78.13;100218.94;10206705;28;20054;-65
2020/12/31 11:02:14;;;;;;;12.90;8.95;;;;;;;3.57;78.17;100220.56;10200034;28;20059;-64
2020/12/31 11:07:10;;;;;;;13.35;8.20;;;;;;;3.57;77.89;100215.16;10195748;28;20103;-65
2020/12/31 11:12:06;;;;;;;11.32;7.88;;;;;;;3.73;77.54;100217.69;10223439;28;20084;-68
2020/12/31 11:17:02;;;;;;;9.88;6.13;;;;;;;3.51;76.75;100210.88;10204934;28;20055;-63
2020/12/31 11:21:58;;;;;;;10.18;6.38;;;;;;;3.34;77.45;100211.28;10213018;28;20045;-65
2020/12/31 11:26:54;;;;;;;9.27;6.50;;;;;;;3.53;77.13;100203.28;10222660;28;20664;-65
2020/12/31 11:31:50;;;;;;;9.40;6.80;;;;;;;3.70;76.05;100197.44;10225900;28;20054;-66
2020/12/31 11:36:55;;;;;;;10.38;6.75;;;;;;;3.66;76.73;100206.41;10215794;28;20107;-66
2020/12/31 11:41:56;;;;;;;11.27;7.38;;;;;;;3.54;77.24;100193.28;10231832;28;20045;-65
2020/12/31 11:46:57;;;;;;;9.90;6.43;;;;;;;3.49;78.31;100191.41;10222654;28;20045;-65
2020/12/31 11:51:58;;;;;;;9.43;6.28;;;;;;;3.65;77.42;100188.59;10218954;28;20107;-65
2020/12/31 11:56:54;;;;;;;10.65;7.35;;;;;;;3.56;77.81;100191.91;10211764;28;20042;-65
2020/12/31 12:01:51;;;;;;;10.05;6.85;;;;;;;3.65;77.62;100188.59;10219438;28;20057;-64
2020/12/31 12:06:49;;;;;;;11.85;7.15;;;;;;;3.76;76.81;100184.69;10213191;28;20060;-65
2020/12/31 12:11:45;;;;;;;11.00;6.78;;;;;;;3.76;77.28;100184.69;10220440;28;20053;-64
2020/12/31 12:16:46;;;;;;;13.20;7.15;;;;;;;3.88;78.03;100176.22;10223633;28;20107;-64
2020/12/31 12:21:42;;;;;;;13.52;7.90;;;;;;;3.94;77.09;100181.25;10222136;28;20491;-65
2020/12/31 12:26:39;;;;;;;12.38;6.95;;;;;;;3.91;77.88;100181.03;10228427;28;20057;-64
2020/12/31 12:31:37;;;;;;;10.65;7.60;;;;;;;3.79;77.36;100178.72;10226485;28;20072;-64
2020/12/31 12:36:35;;;;;;;10.32;7.07;;;;;;;3.82;76.93;100183.53;10215862;28;20073;-64
2020/12/31 12:41:32;;;;;;;9.07;6.00;;;;;;;3.78;77.68;100187.91;10209262;28;20060;-64
2020/12/31 12:46:29;;;;;;;8.68;5.55;;;;;;;3.75;77.67;100183.06;10201338;28;20050;-66
2020/12/31 12:51:32;;;;;;;8.32;5.85;;;;;;;3.67;77.17;100175.59;10203107;28;20054;-65
2020/12/31 12:56:29;;;;;;;9.05;5.95;;;;;;;3.71;77.46;100176.63;10189656;28;20068;-65
2020/12/31 13:01:25;;;;;;;9.77;6.38;;;;;;;3.75;76.73;100183.06;10210624;28;20053;-64
2020/12/31 13:06:21;;;;;;;9.98;6.18;;;;;;;3.72;76.84;100189.06;10205564;28;20576;-65
2020/12/31 13:11:21;;;;;;;10.30;7.03;;;;;;;3.72;76.61;100189.88;10204640;28;20531;-66
2020/12/31 13:16:17;;;;;;;10.43;5.93;;;;;;;3.74;76.63;100187.69;10203861;28;20478;-66
2020/12/31 13:21:18;;;;;;;8.55;5.65;;;;;;;3.80;76.14;100185.72;10222868;28;20433;-64
2020/12/31 13:26:15;;;;;;;10.80;6.15;;;;;;;3.96;75.86;100192.59;10215816;28;20636;-66
2020/12/31 13:31:11;;;;;;;9.70;6.68;;;;;;;3.95;75.49;100199.09;10210424;28;20053;-64
2020/12/31 13:36:07;;;;;;;10.52;6.38;;;;;;;3.85;75.95;100188.38;10207234;28;20528;-67
2020/12/31 13:41:03;;;;;;;9.57;6.53;;;;;;;3.97;75.35;100191.53;10198947;28;20042;-67
2020/12/31 13:45:59;;;;;;;9.32;6.38;;;;;;;3.91;75.31;100192.66;10217656;28;20547;-66
2020/12/31 13:50:55;;;;;;;9.98;6.00;;;;;;;3.87;75.78;100197.00;10235304;28;20057;-66
2020/12/31 13:55:52;;;;;;;9.35;6.50;;;;;;;3.78;75.71;100204.13;10214797;28;20417;-67
2020/12/31 14:00:49;;;;;;;12.48;7.25;;;;;;;3.82;76.10;100199.78;10215385;28;20536;-67
2020/12/31 14:05:45;;;;;;;9.73;6.85;;;;;;;3.83;76.16;100201.41;10213695;28;20111;-66
2020/12/31 14:10:41;;;;;;;9.27;6.25;;;;;;;3.75;76.42;100204.72;10204580;28;20501;-66
2020/12/31 14:15:38;;;;;;;10.00;5.93;;;;;;;3.71;76.23;100209.91;10205794;28;20057;-66
2020/12/31 14:20:34;;;;;;;12.63;7.80;;;;;;;3.79;76.12;100208.47;10212256;28;20123;-67
2020/12/31 14:25:30;;;;;;;10.20;6.75;;;;;;;3.83;76.05;100217.63;10193116;28;20052;-67
2020/12/31 14:30:26;;;;;;;9.43;6.53;;;;;;;3.91;74.85;100217.00;10212157;28;20496;-66
2020/12/31 14:35:23;;;;;;;9.18;6.07;;;;;;;3.83;74.75;100214.94;10199263;28;20049;-67
2020/12/31 14:40:19;;;;;;;8.98;5.93;;;;;;;3.90;74.01;100223.50;10208005;28;20053;-68
2020/12/31 14:45:15;;;;;;;7.68;4.90;;;;;;;3.59;72.74;100223.75;10221600;28;20049;-67
2020/12/31 14:50:14;;;;;;;8.07;5.00;;;;;;;3.76;73.49;100222.53;10190198;28;20050;-67
2020/12/31 14:55:10;;;;;;;8.93;5.55;;;;;;;3.89;74.43;100224.59;10200067;28;20050;-67
2020/12/31 15:00:07;;;;;;;9.88;6.88;;;;;;;3.74;74.24;100224.75;10199681;28;20053;-67
2020/12/31 15:05:03;;;;;;;10.73;7.40;;;;;;;3.72;75.41;100233.13;10195786;28;20045;-67
2020/12/31 15:10:00;;;;;;;13.90;8.13;;;;;;;3.75;75.77;100231.75;10194126;28;20064;-67
2020/12/31 15:14:56;;;;;;;10.90;7.97;;;;;;;3.82;76.01;100239.53;10200846;28;20072;-68
2020/12/31 15:19:53;;;;;;;12.30;7.93;;;;;;;3.78;76.80;100242.00;10208012;28;20052;-67
2020/12/31 15:24:49;;;;;;;12.40;8.50;;;;;;;3.89;76.28;100232.69;10200210;28;20564;-67
2020/12/31 15:29:45;;;;;;;11.88;8.50;;;;;;;3.80;76.50;100232.50;10194833;28;20041;-68
2020/12/31 15:34:41;;;;;;;13.93;8.85;;;;;;;3.85;76.45;100237.06;10205088;28;20046;-68
2020/12/31 15:39:37;;;;;;;14.27;8.88;;;;;;;3.87;76.62;100234.88;10212073;28;20072;-67
2020/12/31 15:44:34;;;;;;;12.32;8.43;;;;;;;3.86;76.67;100238.69;10209127;28;20046;-67
2020/12/31 15:49:30;;;;;;;10.77;7.70;;;;;;;3.83;76.83;100238.44;10217796;28;20236;-67
2020/12/31 15:54:26;;;;;;;12.27;8.55;;;;;;;3.79;76.68;100230.09;10222040;28;20570;-68
2020/12/31 15:59:23;;;;;;;11.77;7.90;;;;;;;3.87;76.70;100234.88;10214721;28;20053;-67
2020/12/31 16:04:19;;;;;;;16.13;9.38;;;;;;;3.80;76.21;100234.41;10188648;28;20100;-67
2020/12/31 16:09:16;;;;;;;11.30;7.63;;;;;;;3.79;76.66;100233.59;10205208;28;20053;-67
2020/12/31 16:14:12;;;;;;;10.90;7.13;;;;;;;3.76;76.00;100234.19;10221074;28;20037;-68
2020/12/31 16:19:08;;;;;;;12.57;8.10;;;;;;;3.82;75.84;100234.13;10212387;28;20049;-69
2020/12/31 16:24:04;;;;;;;10.73;6.97;;;;;;;3.77;75.43;100224.16;10222869;28;20061;-67
2020/12/31 16:29:00;;;;;;;10.68;6.43;;;;;;;3.71;74.93;100233.41;10213478;28;20494;-68
2020/12/31 16:33:57;;;;;;;11.95;7.80;;;;;;;3.62;76.42;100232.41;10242797;28;20045;-67
2020/12/31 16:38:53;;;;;;;11.50;7.60;;;;;;;3.68;76.14;100231.28;10222911;28;20049;-65
2020/12/31 16:43:49;;;;;;;12.45;7.88;;;;;;;3.53;76.24;100227.63;10229430;28;20045;-66
2020/12/31 16:48:46;;;;;;;11.90;8.05;;;;;;;3.67;77.21;100218.84;10217904;28;20052;-67
2020/12/31 16:53:42;;;;;;;13.20;8.35;;;;;;;3.74;77.19;100235.56;10219778;28;20049;-67
2020/12/31 16:58:49;;;;;;;12.43;8.48;;;;;;;3.77;76.81;100229.56;10215361;28;20060;-68
2020/12/31 17:03:45;;;;;;;13.35;7.53;;;;;;;3.71;76.89;100236.09;10229468;28;20053;-66
2020/12/31 17:08:42;;;;;;;11.07;8.00;;;;;;;3.73;77.55;100244.75;10230924;28;20049;-67
2020/12/31 17:13:38;;;;;;;12.95;8.98;;;;;;;3.72;77.83;100243.16;10231252;28;20045;-66
2020/12/31 17:18:49;;;;;;;11.80;8.35;;;;;;;3.81;78.00;100252.25;10233706;28;20057;-66
2020/12/31 17:23:45;;;;;;;12.68;8.68;;;;;;;3.68;78.47;100240.19;10227408;28;20057;-65
2020/12/31 17:28:42;;;;;;;15.38;10.65;;;;;;;3.59;78.41;100248.09;10208622;28;20081;-66
2020/12/31 17:33:40;;;;;;;14.02;10.45;;;;;;;3.68;78.84;100252.91;10208776;28;20487;-66
2020/12/31 17:38:39;;;;;;;16.38;11.55;;;;;;;3.64;78.88;100251.84;10218934;28;20049;-66
2020/12/31 17:43:39;;;;;;;16.52;10.82;;;;;;;3.75;78.71;100253.38;10220800;28;20049;-65
2020/12/31 17:48:36;;;;;;;15.93;11.00;;;;;;;3.67;78.48;100254.00;10203211;28;20515;-66
2020/12/31 17:53:32;;;;;;;16.95;12.10;;;;;;;3.66;78.38;100255.88;10213392;28;20098;-67
2020/12/31 17:58:28;;;;;;;17.08;12.32;;;;;;;3.72;78.91;100256.66;10207644;28;20685;-68
2020/12/31 18:03:24;;;;;;;22.05;13.30;;;;;;;3.68;79.36;100251.00;10203311;28;20050;-66
2020/12/31 18:08:20;;;;;;;17.50;12.05;;;;;;;3.69;79.41;100251.81;10202133;28;20565;-67
2020/12/31 18:13:16;;;;;;;15.70;11.73;;;;;;;3.70;78.87;100251.53;10197856;28;20509;-65
2020/12/31 18:18:13;;;;;;;18.45;12.43;;;;;;;3.71;78.51;100246.91;10203020;28;20268;-65
2020/12/31 18:23:11;;;;;;;16.92;11.43;;;;;;;3.71;78.96;100253.16;10196856;28;20091;-67
2020/12/31 18:28:24;;;;;;;17.90;12.70;;;;;;;3.67;78.99;100264.81;10224120;28;20733;-67
2020/12/31 18:33:21;;;;;;;22.55;14.82;;;;;;;3.52;78.63;100268.44;10221269;28;20072;-66
2020/12/31 18:38:17;;;;;;;19.27;12.07;;;;;;;3.53;79.34;100262.75;10194397;28;20088;-66
2020/12/31 18:43:13;;;;;;;15.38;11.77;;;;;;;3.67;78.47;100267.53;10211744;28;20073;-66
2020/12/31 18:48:09;;;;;;;17.08;11.25;;;;;;;3.71;78.49;100253.16;10210050;28;20052;-63
2020/12/31 18:53:06;;;;;;;21.00;11.95;;;;;;;3.63;78.19;100261.88;10196516;28;20063;-67
2020/12/31 18:58:02;;;;;;;17.50;11.60;;;;;;;3.86;77.33;100248.72;10203995;28;20080;-65
2020/12/31 19:02:58;;;;;;;18.25;12.35;;;;;;;3.83;78.08;100249.25;10213636;28;20046;-67
2020/12/31 19:07:54;;;;;;;18.08;11.68;;;;;;;3.70;77.64;100253.44;10202940;28;20049;-67
2020/12/31 19:12:51;;;;;;;15.70;11.45;;;;;;;3.69;77.73;100254.50;10217879;28;20058;-65
2020/12/31 19:17:49;;;;;;;21.25;13.70;;;;;;;3.61;78.08;100255.13;10220668;28;20564;-68
2020/12/31 19:22:46;;;;;;;17.85;13.02;;;;;;;3.56;78.09;100262.19;10217984;28;20111;-68
2020/12/31 19:27:44;;;;;;;20.50;14.23;;;;;;;3.61;78.08;100276.75;10205053;28;20049;-66
2020/12/31 19:32:41;;;;;;;18.98;13.75;;;;;;;3.49;79.33;100272.50;10225231;28;20083;-66
2020/12/31 19:37:39;;;;;;;20.73;13.75;;;;;;;3.52;78.89;100277.34;10223337;28;20049;-66
2020/12/31 19:42:35;;;;;;;19.17;13.20;;;;;;;3.53;79.38;100272.75;10210815;28;20551;-66
2020/12/31 19:47:31;;;;;;;16.70;12.23;;;;;;;3.41;79.99;100281.19;10192864;28;20119;-67
2020/12/31 19:52:27;;;;;;;18.38;12.60;;;;;;;3.35;79.46;100291.25;10220025;28;20149;-67
2020/12/31 19:57:24;;;;;;;17.33;12.00;;;;;;;3.45;80.11;100293.06;10207441;28;20085;-67
2020/12/31 20:02:20;;;;;;;17.52;11.80;;;;;;;3.36;80.57;100294.75;10191679;28;20134;-65
2020/12/31 20:07:16;;;;;;;19.73;13.13;;;;;;;3.44;80.09;100306.88;10197988;28;20053;-67
2020/12/31 20:12:12;;;;;;;18.27;12.25;;;;;;;3.39;80.49;100315.84;10187531;28;20096;-68
2020/12/31 20:17:08;;;;;;;21.02;12.85;;;;;;;3.47;80.09;100312.53;10200026;28;20108;-67
2020/12/31 20:22:04;;;;;;;19.77;13.43;;;;;;;3.46;80.30;100316.31;10189850;28;20057;-66
2020/12/31 20:27:00;;;;;;;20.35;14.07;;;;;;;3.57;80.35;100317.88;10193743;28;20398;-68
2020/12/31 20:32:04;;;;;;;18.00;13.00;;;;;;;3.63;80.29;100320.53;10192924;28;20647;-68
2020/12/31 20:37:06;;;;;;;16.30;12.02;;;;;;;3.59;79.87;100326.50;10192085;28;20064;-68
2020/12/31 20:42:02;;;;;;;16.70;12.15;;;;;;;3.65;80.24;100318.38;10208852;28;20057;-66
2020/12/31 20:46:58;;;;;;;23.55;15.25;;;;;;;3.57;80.70;100319.75;10206935;28;20053;-68
2020/12/31 20:51:54;;;;;;;22.95;15.38;;;;;;;3.54;80.16;100318.41;10206897;28;20050;-67
2020/12/31 20:56:54;;;;;;;22.50;14.05;;;;;;;3.65;80.51;100318.38;10201079;28;20497;-67
2020/12/31 21:01:51;;;;;;;81.90;54.25;;;;;;;3.56;80.14;100329.75;10198186;28;20148;-67
2020/12/31 21:06:49;;;;;;;20.00;13.68;;;;;;;3.39;81.03;100323.94;10198159;28;20064;-67
2020/12/31 21:11:46;;;;;;;19.25;13.38;;;;;;;3.43;80.90;100327.69;10207716;28;20057;-67
2020/12/31 21:16:42;;;;;;;23.42;14.15;;;;;;;3.52;80.09;100315.19;10205220;28;20765;-68
2020/12/31 21:21:38;;;;;;;24.13;15.60;;;;;;;3.44;80.91;100329.31;10201580;28;20108;-67
2020/12/31 21:26:35;;;;;;;24.20;15.45;;;;;;;3.52;80.80;100326.00;10197195;28;20053;-68
2020/12/31 21:31:31;;;;;;;23.00;15.57;;;;;;;3.52;80.03;100325.19;10199307;28;20057;-68
2020/12/31 21:36:27;;;;;;;26.63;16.92;;;;;;;3.49;80.20;100326.56;10202252;28;20053;-67
2020/12/31 21:41:24;;;;;;;29.52;17.77;;;;;;;3.29;81.61;100334.78;10201229;28;20069;-69
2020/12/31 21:46:26;;;;;;;23.67;15.82;;;;;;;3.33;81.40;100341.25;10207998;28;20049;-67
2020/12/31 21:51:23;;;;;;;26.48;17.70;;;;;;;3.38;81.18;100333.13;10201262;28;20096;-66
2020/12/31 21:56:21;;;;;;;26.20;16.92;;;;;;;3.35;81.32;100330.97;10198914;28;20068;-66
2020/12/31 22:01:19;;;;;;;26.63;16.63;;;;;;;3.34;81.03;100345.56;10200805;28;20045;-66
2020/12/31 22:06:16;;;;;;;26.40;17.80;;;;;;;3.33;80.95;100346.66;10207080;28;20071;-65
2020/12/31 22:11:13;;;;;;;24.05;17.67;;;;;;;3.45;80.64;100341.72;10229239;28;20084;-66
2020/12/31 22:16:16;;;;;;;22.55;16.15;;;;;;;3.45;80.78;100347.13;10214166;28;20368;-64
2020/12/31 22:21:13;;;;;;;29.70;19.00;;;;;;;3.43;80.60;100349.28;10200494;28;20417;-64
2020/12/31 22:26:09;;;;;;;26.77;18.95;;;;;;;3.58;79.97;100351.13;10173964;28;20552;-66
2020/12/31 22:31:06;;;;;;;26.35;17.58;;;;;;;3.54;80.02;100353.56;10214945;28;20042;-66
2020/12/31 22:36:02;;;;;;;29.30;19.25;;;;;;;3.47;80.24;100344.97;10198374;28;20537;-66